Krasnotur'yinsk, Russia
Current Conditions -  °F | °C
As of 8:30 PM on Saturday 25 Oct 2014 (Local Time) from USPP Reporting Station
Few Clouds Few Clouds  
Wind Chill:   Ceiling: Unl
Heat Index: 12°   Visibility: 6mi
Dew Point:   Wind: 4mph
Humidity: 79%   Direction: 320°NW
Pressure: 30.21"   Gusts: NA
Location:  59.46°N, 60.11°E
Report Text: USPP 251530Z 32002MPS 9999 FEW018 M11/M14 Q1023 03810255 NOSIGRMK QFE757/1009
Loading
Personal Weather Stations






























Interactive Weather Map
Tropical Storm Tracking
New forecast layout! Learn more

10-Day Weather Forecast

Advertisements
Track Severe Weather on mobile